Time;durP1;ratioP1;P1;durP2;ratioP2;P2;SDS_P1;SDS_P2;PMS_P1;PMS_P2;Temp;Humidity;BMP_temperature;BMP_pressure;BME280_temperature;BME280_humidity;BME280_pressure;Samples;Min_cycle;Max_cycle;Signal;HPM_P1;HPM_P2
2023/06/23 00:00:22;;;;;;;13.18;11.63;;;17.00;99.90;;;;;;5052787;28;20698;-47
2023/06/23 00:02:48;;;;;;;16.63;11.82;;;17.10;99.90;;;;;;5071411;28;20177;-47
2023/06/23 00:05:14;;;;;;;14.60;12.07;;;17.10;99.90;;;;;;5074327;28;20201;-47
2023/06/23 00:07:39;;;;;;;20.70;12.77;;;17.10;99.90;;;;;;5075491;28;20592;-52
2023/06/23 00:10:06;;;;;;;18.35;12.45;;;17.10;99.90;;;;;;5074818;28;20173;-53
2023/06/23 00:12:33;;;;;;;19.40;12.23;;;17.10;99.90;;;;;;5075062;28;20262;-53
2023/06/23 00:15:00;;;;;;;12.50;9.65;;;17.10;99.90;;;;;;5074850;28;20641;-53
2023/06/23 00:17:26;;;;;;;12.88;10.93;;;;;;;;;;5075110;28;20174;-53
2023/06/23 00:19:51;;;;;;;14.77;10.98;;;17.00;99.90;;;;;;5074823;28;20192;-53
2023/06/23 00:22:17;;;;;;;18.10;11.32;;;17.00;99.90;;;;;;5074813;28;20166;-53
2023/06/23 00:24:43;;;;;;;14.23;10.60;;;17.00;99.90;;;;;;5074230;28;20166;-52
2023/06/23 00:27:08;;;;;;;18.77;12.23;;;17.00;99.90;;;;;;5075327;28;20265;-51
2023/06/23 00:29:34;;;;;;;16.85;10.45;;;17.00;99.90;;;;;;5074645;28;20192;-53
2023/06/23 00:31:59;;;;;;;15.90;11.82;;;17.10;99.90;;;;;;5074434;28;20202;-53
2023/06/23 00:34:25;;;;;;;15.68;11.05;;;;;;;;;;5074503;28;20754;-53
2023/06/23 00:36:51;;;;;;;12.73;10.82;;;17.20;99.90;;;;;;5074560;28;20264;-53
2023/06/23 00:39:16;;;;;;;17.17;10.38;;;17.00;99.90;;;;;;5074478;28;20637;-53
2023/06/23 00:41:42;;;;;;;13.82;10.38;;;16.90;99.90;;;;;;5074388;28;20162;-52
2023/06/23 00:44:08;;;;;;;13.90;9.57;;;;;;;;;;5074781;28;20193;-47
2023/06/23 00:46:34;;;;;;;13.07;9.95;;;;;;;;;;5074025;28;20166;-47
2023/06/23 00:49:00;;;;;;;11.52;9.10;;;17.00;99.90;;;;;;5074255;28;20162;-47
2023/06/23 00:51:26;;;;;;;14.95;9.15;;;16.90;99.90;;;;;;5074174;28;20292;-47
2023/06/23 00:53:53;;;;;;;14.00;10.23;;;16.90;99.90;;;;;;5073904;28;20193;-48
2023/06/23 00:56:23;;;;;;;13.02;10.23;;;17.00;99.90;;;;;;5074419;28;20182;-47
2023/06/23 00:58:49;;;;;;;15.13;10.15;;;16.90;99.90;;;;;;5074189;28;20166;-48
2023/06/23 01:01:15;;;;;;;13.13;9.77;;;17.00;99.90;;;;;;5056066;28;20223;-47
2023/06/23 01:03:41;;;;;;;16.73;9.63;;;;;;;;;;5074446;28;20170;-48
2023/06/23 01:06:16;;;;;;;15.75;9.63;;;16.90;99.90;;;;;;5074378;28;20173;-47
2023/06/23 01:09:00;;;;;;;16.35;9.20;;;17.00;99.90;;;;;;5073837;28;20259;-47
2023/06/23 01:11:33;;;;;;;13.75;8.30;;;16.80;99.90;;;;;;5073772;28;20555;-47
2023/06/23 01:14:06;;;;;;;11.10;7.43;;;16.80;99.90;;;;;;5073777;28;20177;-48
2023/06/23 01:16:37;;;;;;;11.98;7.55;;;16.90;99.90;;;;;;5072755;28;20190;-47
2023/06/23 01:19:46;;;;;;;9.25;7.10;;;17.00;99.90;;;;;;5073685;28;20257;-47
2023/06/23 01:22:36;;;;;;;14.85;7.65;;;17.00;99.90;;;;;;5073385;28;20625;-48
2023/06/23 01:25:21;;;;;;;13.02;6.93;;;16.70;99.90;;;;;;5073650;28;20537;-48
2023/06/23 01:28:06;;;;;;;13.30;7.32;;;16.90;99.90;;;;;;5073197;28;20195;-48
2023/06/23 01:30:33;;;;;;;11.20;6.70;;;;;;;;;;5072980;28;20230;-47
2023/06/23 01:33:06;;;;;;;10.75;6.72;;;16.60;99.90;;;;;;5073343;28;20174;-47
2023/06/23 01:35:37;;;;;;;12.98;6.63;;;16.40;99.90;;;;;;5073473;28;20158;-47
2023/06/23 01:38:38;;;;;;;9.82;5.90;;;16.70;99.90;;;;;;5073393;28;20204;-48
2023/06/23 01:41:11;;;;;;;12.43;7.55;;;16.60;99.90;;;;;;5055763;28;20185;-48
2023/06/23 01:43:38;;;;;;;9.45;6.15;;;16.70;99.90;;;;;;5073972;28;20162;-47
2023/06/23 01:46:15;;;;;;;13.40;6.80;;;16.80;99.90;;;;;;5073267;28;20170;-47
2023/06/23 01:48:43;;;;;;;12.65;6.22;;;;;;;;;;5072404;28;20162;-48
2023/06/23 01:51:10;;;;;;;10.13;6.53;;;16.70;99.90;;;;;;5073252;28;20224;-47
2023/06/23 01:53:37;;;;;;;12.27;6.90;;;;;;;;;;5071831;28;20279;-48
2023/06/23 01:56:05;;;;;;;11.85;6.95;;;16.70;99.90;;;;;;5072545;28;20166;-48
2023/06/23 01:58:33;;;;;;;13.07;6.93;;;16.90;99.90;;;;;;5072910;28;20283;-47
2023/06/23 02:01:00;;;;;;;14.07;7.15;;;16.80;99.90;;;;;;5073205;28;20250;-47
2023/06/23 02:03:27;;;;;;;11.27;7.45;;;16.80;99.90;;;;;;5055003;28;20169;-47
2023/06/23 02:05:55;;;;;;;12.55;7.25;;;16.90;99.90;;;;;;5073367;28;20170;-48
2023/06/23 02:08:23;;;;;;;13.20;8.18;;;16.70;99.90;;;;;;5072787;28;20247;-47
2023/06/23 02:10:51;;;;;;;12.60;6.72;;;16.80;99.90;;;;;;5072583;28;20692;-47
2023/06/23 02:13:20;;;;;;;12.80;7.70;;;16.80;99.90;;;;;;5072691;28;20643;-47
2023/06/23 02:15:47;;;;;;;14.05;8.65;;;16.80;99.90;;;;;;5072309;28;20158;-47
2023/06/23 02:18:16;;;;;;;14.68;8.32;;;16.70;99.90;;;;;;5072656;28;20201;-47
2023/06/23 02:20:43;;;;;;;14.35;8.77;;;16.80;99.90;;;;;;5072781;28;20588;-47
2023/06/23 02:23:09;;;;;;;23.35;8.20;;;16.70;99.90;;;;;;5072895;28;20236;-47
2023/06/23 02:25:35;;;;;;;16.67;8.07;;;16.90;99.90;;;;;;5072435;28;20596;-47
2023/06/23 02:28:01;;;;;;;14.02;8.70;;;16.80;99.90;;;;;;5071599;28;20224;-47
2023/06/23 02:30:28;;;;;;;11.38;8.10;;;16.90;99.90;;;;;;5072471;28;20217;-47
2023/06/23 02:32:54;;;;;;;17.58;7.93;;;16.90;99.90;;;;;;5072367;28;20174;-47
2023/06/23 02:35:20;;;;;;;15.57;9.15;;;16.90;99.90;;;;;;5072504;28;20591;-48
2023/06/23 02:37:52;;;;;;;13.27;8.25;;;16.70;99.90;;;;;;5072199;28;20617;-47
2023/06/23 02:40:19;;;;;;;10.82;8.25;;;16.90;99.90;;;;;;5072051;28;20227;-47
2023/06/23 02:42:55;;;;;;;14.00;8.13;;;16.80;99.90;;;;;;5072114;28;20173;-47
2023/06/23 02:45:24;;;;;;;13.98;8.38;;;;;;;;;;5072034;28;20223;-47
2023/06/23 02:47:54;;;;;;;12.40;7.75;;;16.90;99.90;;;;;;5072053;28;20177;-48
2023/06/23 02:50:26;;;;;;;13.65;8.52;;;16.90;99.90;;;;;;5071918;28;20284;-47
2023/06/23 02:52:56;;;;;;;15.00;8.48;;;;;;;;;;5071302;28;20170;-47
2023/06/23 02:55:23;;;;;;;15.75;9.90;;;16.70;99.90;;;;;;5052876;28;20622;-47
2023/06/23 02:57:52;;;;;;;12.88;8.73;;;16.70;99.90;;;;;;5071746;28;20177;-47
2023/06/23 03:00:22;;;;;;;17.15;9.52;;;16.70;99.90;;;;;;5071898;28;20197;-47
2023/06/23 03:02:53;;;;;;;14.85;9.57;;;16.70;99.90;;;;;;5071898;28;20174;-48
2023/06/23 03:05:21;;;;;;;14.00;8.98;;;16.90;99.90;;;;;;5071642;28;20215;-49
2023/06/23 03:07:49;;;;;;;14.65;10.30;;;16.60;99.90;;;;;;5071177;28;20238;-47
2023/06/23 03:10:15;;;;;;;14.45;9.40;;;16.80;99.90;;;;;;5053443;28;20679;-47
2023/06/23 03:12:41;;;;;;;19.00;10.40;;;;;;;;;;5071052;28;20170;-47
2023/06/23 03:15:07;;;;;;;14.50;10.25;;;16.80;99.90;;;;;;5072018;28;20327;-47
2023/06/23 03:17:36;;;;;;;17.00;11.13;;;16.90;99.90;;;;;;5053702;28;20327;-47
2023/06/23 03:20:24;;;;;;;16.98;10.43;;;16.80;99.90;;;;;;5071758;28;20204;-48
2023/06/23 03:22:53;;;;;;;13.18;10.35;;;;;;;;;;5071536;28;20181;-48
2023/06/23 03:25:26;;;;;;;20.77;11.27;;;16.80;99.90;;;;;;5071810;28;20536;-48
2023/06/23 03:27:55;;;;;;;19.67;11.25;;;16.80;99.90;;;;;;5071498;28;20177;-47
2023/06/23 03:30:41;;;;;;;20.63;11.52;;;16.80;99.90;;;;;;5071362;28;20202;-47
2023/06/23 03:33:27;;;;;;;21.85;12.50;;;16.70;99.90;;;;;;5072081;28;20162;-47
2023/06/23 03:35:56;;;;;;;15.38;12.32;;;;;;;;;;5071357;28;20174;-52
2023/06/23 03:38:24;;;;;;;19.60;13.02;;;16.70;99.90;;;;;;5072556;28;20690;-53
2023/06/23 03:41:03;;;;;;;17.15;12.88;;;16.80;99.90;;;;;;5078341;28;20239;-53
2023/06/23 03:43:41;;;;;;;24.50;12.77;;;16.70;99.90;;;;;;5078065;28;20295;-52
2023/06/23 03:46:18;;;;;;;17.40;13.50;;;16.70;99.90;;;;;;5078384;28;20193;-53
2023/06/23 03:48:46;;;;;;;21.17;13.68;;;16.80;99.90;;;;;;5077950;28;20176;-53
2023/06/23 03:51:14;;;;;;;25.17;14.50;;;16.70;99.90;;;;;;5077887;28;20197;-52
2023/06/23 03:53:41;;;;;;;20.48;13.93;;;;;;;;;;5077982;28;20173;-48
2023/06/23 03:56:07;;;;;;;21.63;15.18;;;;;;;;;;5077178;28;20170;-47
2023/06/23 03:58:34;;;;;;;21.85;15.25;;;16.70;99.90;;;;;;5077592;28;20507;-48
2023/06/23 04:01:02;;;;;;;22.25;15.80;;;;;;;;;;5077257;28;20193;-47
2023/06/23 04:03:30;;;;;;;24.08;14.43;;;16.60;99.90;;;;;;5077556;28;20259;-48
2023/06/23 04:05:56;;;;;;;19.80;14.48;;;16.70;99.90;;;;;;5077994;28;20257;-48
2023/06/23 04:08:24;;;;;;;18.27;14.55;;;16.70;99.90;;;;;;5077557;28;20259;-47
2023/06/23 04:10:52;;;;;;;20.80;14.05;;;16.70;99.90;;;;;;5077679;28;20216;-49
2023/06/23 04:13:19;;;;;;;24.92;16.15;;;16.70;99.90;;;;;;5077743;28;20161;-48
2023/06/23 04:15:46;;;;;;;31.77;17.77;;;;;;;;;;5077428;28;20165;-47
2023/06/23 04:18:14;;;;;;;21.58;15.65;;;16.80;99.90;;;;;;5077537;28;20526;-53
2023/06/23 04:20:42;;;;;;;23.67;15.27;;;16.90;99.90;;;;;;5078364;28;20587;-53
2023/06/23 04:23:08;;;;;;;22.48;15.18;;;17.10;99.90;;;;;;5078176;28;20157;-53
2023/06/23 04:25:36;;;;;;;22.55;15.85;;;17.00;99.90;;;;;;5077667;28;20194;-54
2023/06/23 04:28:04;;;;;;;21.85;15.48;;;17.00;99.90;;;;;;5077647;28;20633;-54
2023/06/23 04:30:34;;;;;;;20.52;15.70;;;17.10;99.90;;;;;;5077126;28;20226;-51
2023/06/23 04:33:00;;;;;;;18.80;15.95;;;;;;;;;;5077399;28;20295;-47
2023/06/23 04:35:25;;;;;;;26.20;16.33;;;17.20;99.90;;;;;;5076836;28;20241;-52
2023/06/23 04:38:03;;;;;;;20.90;15.73;;;;;;;;;;5077357;28;20169;-47
2023/06/23 04:40:45;;;;;;;23.20;16.80;;;17.30;99.90;;;;;;5077521;28;20165;-47
2023/06/23 04:43:26;;;;;;;28.48;15.15;;;17.40;99.90;;;;;;5077470;28;20170;-48
2023/06/23 04:46:13;;;;;;;25.70;15.70;;;;;;;;;;5077379;28;20696;-47
2023/06/23 04:48:46;;;;;;;23.77;16.35;;;17.50;99.90;;;;;;5077803;28;20170;-47
2023/06/23 04:51:13;;;;;;;19.08;15.38;;;17.50;99.90;;;;;;5074939;28;20204;-47
2023/06/23 04:53:45;;;;;;;24.25;15.73;;;17.50;99.90;;;;;;5074671;28;20163;-47
2023/06/23 04:56:16;;;;;;;23.13;16.98;;;17.50;99.90;;;;;;5074419;28;20197;-47
2023/06/23 04:58:42;;;;;;;24.85;16.35;;;;;;;;;;5074297;28;20226;-47
2023/06/23 05:01:11;;;;;;;24.40;16.40;;;;;;;;;;5073987;28;20162;-47
2023/06/23 05:03:37;;;;;;;21.40;16.30;;;17.60;99.90;;;;;;5074119;28;20174;-47
2023/06/23 05:06:05;;;;;;;21.33;15.02;;;17.60;99.90;;;;;;5073967;28;20177;-47
2023/06/23 05:08:32;;;;;;;23.73;15.77;;;17.80;99.90;;;;;;5073776;28;20217;-48
2023/06/23 05:11:05;;;;;;;27.45;17.10;;;17.50;99.90;;;;;;5073807;28;20267;-47
2023/06/23 05:13:32;;;;;;;25.73;16.95;;;17.60;99.90;;;;;;5073640;28;20162;-47
2023/06/23 05:16:00;;;;;;;20.30;16.67;;;17.40;99.90;;;;;;5074103;28;20170;-47
2023/06/23 05:18:27;;;;;;;22.88;18.20;;;;;;;;;;5055853;28;20169;-46
2023/06/23 05:20:55;;;;;;;23.15;16.55;;;17.30;99.90;;;;;;5073727;28;20174;-47
2023/06/23 05:23:22;;;;;;;22.85;18.02;;;17.60;99.90;;;;;;5073730;28;20287;-47
2023/06/23 05:25:49;;;;;;;25.67;15.45;;;17.60;99.90;;;;;;5073595;28;20162;-47
2023/06/23 05:28:19;;;;;;;23.77;16.35;;;17.60;99.90;;;;;;5073834;28;20223;-47
2023/06/23 05:30:46;;;;;;;20.40;16.38;;;17.70;99.90;;;;;;5073718;28;20641;-48
2023/06/23 05:33:13;;;;;;;25.50;17.63;;;17.90;99.90;;;;;;5073523;28;20176;-47
2023/06/23 05:35:40;;;;;;;22.85;16.65;;;;;;;;;;5073944;28;20223;-47
2023/06/23 05:38:06;;;;;;;20.10;17.25;;;17.90;99.90;;;;;;5073823;28;20177;-47
2023/06/23 05:40:32;;;;;;;24.85;16.38;;;17.90;99.90;;;;;;5073339;28;20624;-47
2023/06/23 05:42:58;;;;;;;21.58;15.88;;;17.90;99.90;;;;;;5073227;28;20201;-47
2023/06/23 05:45:23;;;;;;;18.48;15.90;;;18.00;99.90;;;;;;5073287;28;20280;-47
2023/06/23 05:48:10;;;;;;;22.52;16.63;;;18.10;99.90;;;;;;5073491;28;20213;-47
2023/06/23 05:50:38;;;;;;;22.27;15.77;;;18.30;99.90;;;;;;5073538;28;20565;-47
2023/06/23 05:53:11;;;;;;;24.05;16.48;;;18.40;99.90;;;;;;5073132;28;20166;-47
2023/06/23 05:55:49;;;;;;;21.83;16.25;;;18.30;99.90;;;;;;5073557;28;20167;-47
2023/06/23 05:58:17;;;;;;;22.85;16.38;;;18.40;99.90;;;;;;5072978;28;20173;-48
2023/06/23 06:00:50;;;;;;;23.02;15.57;;;18.40;99.90;;;;;;5073070;28;20185;-47
2023/06/23 06:03:18;;;;;;;22.92;16.98;;;18.30;99.90;;;;;;5072370;28;20161;-47
2023/06/23 06:05:49;;;;;;;23.42;16.33;;;18.30;99.90;;;;;;5072895;28;20154;-48
2023/06/23 06:08:15;;;;;;;19.00;14.38;;;18.40;99.90;;;;;;5072657;28;20225;-47
2023/06/23 06:10:42;;;;;;;22.55;16.45;;;18.50;99.90;;;;;;5072816;28;20209;-47
2023/06/23 06:13:09;;;;;;;22.00;16.38;;;18.40;99.90;;;;;;5073039;28;20618;-47
2023/06/23 06:15:35;;;;;;;20.15;14.25;;;18.50;99.90;;;;;;5072698;28;20442;-47
2023/06/23 06:18:04;;;;;;;19.70;15.13;;;18.40;99.90;;;;;;5072669;28;20169;-47
2023/06/23 06:20:32;;;;;;;24.30;15.68;;;18.60;99.90;;;;;;5072586;28;20246;-47
2023/06/23 06:22:58;;;;;;;23.80;16.60;;;18.90;99.90;;;;;;5072652;28;20527;-48
2023/06/23 06:25:25;;;;;;;21.67;15.95;;;;;;;;;;5072444;28;20174;-48
2023/06/23 06:27:53;;;;;;;22.35;15.38;;;18.90;99.90;;;;;;5072328;28;20196;-48
2023/06/23 06:30:20;;;;;;;19.58;16.63;;;19.10;99.90;;;;;;5072271;28;20170;-47
2023/06/23 06:32:47;;;;;;;22.92;16.95;;;19.00;99.90;;;;;;5072516;28;20170;-47
2023/06/23 06:35:15;;;;;;;19.30;14.80;;;19.10;99.90;;;;;;5072238;28;20241;-47
2023/06/23 06:37:43;;;;;;;20.15;17.30;;;;;;;;;;5072189;28;20215;-48
2023/06/23 06:40:11;;;;;;;24.50;16.85;;;19.10;99.90;;;;;;5072733;28;20166;-48
2023/06/23 06:42:37;;;;;;;22.42;17.38;;;19.00;99.90;;;;;;5072570;28;20173;-48
2023/06/23 06:45:04;;;;;;;23.90;18.60;;;19.20;99.90;;;;;;5072132;28;20174;-47
2023/06/23 06:47:33;;;;;;;22.25;18.05;;;19.30;99.90;;;;;;5072049;28;20283;-51
2023/06/23 06:50:01;;;;;;;23.85;18.20;;;19.40;99.90;;;;;;5072272;28;20227;-47
2023/06/23 06:52:28;;;;;;;21.48;17.13;;;19.10;99.90;;;;;;5071910;28;20205;-47
2023/06/23 06:54:54;;;;;;;20.27;17.35;;;19.30;99.90;;;;;;5071865;28;20162;-47
2023/06/23 06:57:20;;;;;;;25.02;17.58;;;19.40;99.90;;;;;;5071897;28;20181;-47
2023/06/23 06:59:46;;;;;;;18.73;16.25;;;19.50;99.90;;;;;;5071816;28;20167;-47
2023/06/23 07:02:13;;;;;;;21.10;17.52;;;19.50;99.90;;;;;;5071771;28;20173;-50
2023/06/23 07:04:39;;;;;;;21.45;15.00;;;;;;;;;;5072306;28;20193;-54
2023/06/23 07:07:05;;;;;;;22.35;18.38;;;19.50;99.90;;;;;;5072188;28;20207;-54
2023/06/23 07:09:31;;;;;;;18.92;16.88;;;19.50;99.90;;;;;;5071586;28;20257;-54
2023/06/23 07:11:58;;;;;;;20.30;18.13;;;19.30;99.90;;;;;;5071603;28;20705;-53
2023/06/23 07:14:24;;;;;;;18.30;16.23;;;19.60;99.90;;;;;;5071121;28;20173;-54
2023/06/23 07:16:50;;;;;;;20.10;16.48;;;;;;;;;;5071541;28;20174;-51
2023/06/23 07:19:16;;;;;;;19.55;17.33;;;19.90;99.90;;;;;;5071566;28;20166;-53
2023/06/23 07:21:41;;;;;;;18.30;16.27;;;19.70;99.90;;;;;;5071622;28;20170;-51
2023/06/23 07:24:07;;;;;;;22.92;17.58;;;19.60;99.90;;;;;;5072011;28;20527;-54
2023/06/23 07:26:37;;;;;;;20.90;17.10;;;19.70;99.90;;;;;;5071506;28;20227;-53
2023/06/23 07:29:03;;;;;;;20.67;17.00;;;19.60;99.90;;;;;;5071747;28;20528;-53
2023/06/23 07:31:28;;;;;;;20.13;16.83;;;19.80;99.90;;;;;;5071361;28;20198;-53
2023/06/23 07:33:54;;;;;;;20.90;17.45;;;;;;;;;;5071441;28;20621;-52
2023/06/23 07:36:20;;;;;;;20.38;15.88;;;19.70;99.90;;;;;;5071675;28;20261;-50
2023/06/23 07:38:46;;;;;;;20.85;16.00;;;19.90;99.90;;;;;;5071450;28;20197;-51
2023/06/23 07:41:11;;;;;;;21.25;16.95;;;19.80;99.90;;;;;;5071598;28;20177;-51
2023/06/23 07:43:37;;;;;;;20.60;15.73;;;20.00;99.90;;;;;;5053706;28;20173;-53
2023/06/23 07:46:02;;;;;;;19.65;16.38;;;20.20;99.90;;;;;;5071591;28;20174;-54
2023/06/23 07:48:28;;;;;;;22.05;14.88;;;20.10;99.90;;;;;;5071325;28;20622;-54
2023/06/23 07:50:53;;;;;;;20.58;15.98;;;20.20;99.90;;;;;;5053112;28;20565;-52
2023/06/23 07:53:19;;;;;;;19.35;15.38;;;20.00;99.90;;;;;;5071329;28;20170;-53
2023/06/23 07:55:44;;;;;;;17.33;15.20;;;20.40;99.90;;;;;;5071223;28;20227;-51
2023/06/23 07:58:10;;;;;;;19.27;16.13;;;20.60;99.90;;;;;;5071227;28;20170;-49
2023/06/23 08:00:36;;;;;;;22.50;15.18;;;20.70;99.90;;;;;;5071434;28;20166;-45
2023/06/23 08:03:02;;;;;;;14.90;13.38;;;20.90;99.90;;;;;;5071436;28;20178;-46
2023/06/23 08:05:28;;;;;;;18.27;13.88;;;20.90;99.90;;;;;;5071137;28;20253;-48
2023/06/23 08:07:53;;;;;;;15.73;14.10;;;20.90;99.90;;;;;;5071149;28;20222;-47
2023/06/23 08:10:19;;;;;;;20.00;14.68;;;20.80;99.90;;;;;;5071141;28;20177;-46
2023/06/23 08:12:44;;;;;;;16.75;13.73;;;21.00;99.90;;;;;;5071193;28;20170;-46
2023/06/23 08:15:10;;;;;;;16.17;14.45;;;21.00;99.90;;;;;;5071144;28;20166;-46
2023/06/23 08:17:37;;;;;;;17.88;13.23;;;20.90;99.90;;;;;;5071703;28;20298;-46
2023/06/23 08:20:03;;;;;;;19.42;13.32;;;20.80;99.90;;;;;;5071261;28;20177;-46
2023/06/23 08:22:29;;;;;;;19.92;13.95;;;21.20;99.90;;;;;;5071207;28;20171;-47
2023/06/23 08:24:54;;;;;;;15.35;13.15;;;21.30;99.90;;;;;;5072108;28;20532;-46
2023/06/23 08:27:20;;;;;;;18.30;13.63;;;21.10;99.90;;;;;;5074825;28;20207;-46
2023/06/23 08:29:45;;;;;;;17.45;13.73;;;21.10;99.90;;;;;;5074781;28;20578;-46
2023/06/23 08:32:11;;;;;;;18.25;14.10;;;21.00;99.90;;;;;;5074826;28;20672;-46
2023/06/23 08:34:38;;;;;;;16.02;14.02;;;21.00;99.90;;;;;;5075199;28;20248;-46
2023/06/23 08:37:03;;;;;;;14.18;12.02;;;20.80;99.90;;;;;;5074535;28;20630;-46
2023/06/23 08:39:30;;;;;;;17.17;12.32;;;21.00;99.90;;;;;;5074629;28;20219;-46
2023/06/23 08:41:58;;;;;;;16.15;12.15;;;21.20;99.90;;;;;;5074448;28;20154;-46
2023/06/23 08:44:25;;;;;;;13.98;12.48;;;21.20;99.90;;;;;;5074719;28;20178;-46
2023/06/23 08:46:54;;;;;;;16.98;12.35;;;21.30;99.90;;;;;;5074599;28;20528;-46
2023/06/23 08:49:22;;;;;;;13.50;11.70;;;21.10;99.90;;;;;;5074384;28;20162;-46
2023/06/23 08:51:49;;;;;;;14.45;11.55;;;21.40;99.90;;;;;;5056342;28;20228;-46
2023/06/23 08:54:15;;;;;;;11.90;10.70;;;21.50;99.90;;;;;;5074289;28;20521;-46
2023/06/23 08:56:45;;;;;;;12.98;10.90;;;22.20;99.90;;;;;;5074204;28;20231;-46
2023/06/23 08:59:12;;;;;;;17.67;11.23;;;22.20;99.90;;;;;;5074240;28;20166;-46
2023/06/23 09:01:37;;;;;;;12.27;11.02;;;22.30;99.90;;;;;;5074584;28;20162;-46
2023/06/23 09:04:03;;;;;;;13.00;11.68;;;22.20;99.90;;;;;;5074031;28;20176;-46
2023/06/23 09:06:29;;;;;;;13.38;10.88;;;22.50;99.90;;;;;;5074017;28;20185;-46
2023/06/23 09:08:56;;;;;;;14.10;10.75;;;22.30;99.90;;;;;;5073911;28;20221;-46
2023/06/23 09:11:22;;;;;;;12.30;10.90;;;22.80;99.90;;;;;;5073861;28;20555;-46
2023/06/23 09:13:52;;;;;;;13.38;10.38;;;22.60;99.90;;;;;;5073905;28;20227;-46
2023/06/23 09:16:18;;;;;;;11.27;9.85;;;22.50;99.90;;;;;;5073805;28;20692;-48
2023/06/23 09:18:46;;;;;;;12.45;10.60;;;22.30;99.90;;;;;;5073999;28;20188;-49
2023/06/23 09:21:12;;;;;;;12.25;9.48;;;22.40;99.90;;;;;;5074041;28;20211;-48
2023/06/23 09:23:38;;;;;;;12.32;10.30;;;22.70;99.90;;;;;;5074241;28;20639;-48
2023/06/23 09:26:06;;;;;;;11.48;10.13;;;;;;;;;;5073999;28;20630;-49
2023/06/23 09:28:38;;;;;;;11.00;9.80;;;;;;;;;;5073568;28;20170;-48
2023/06/23 09:31:09;;;;;;;10.40;9.15;;;;;;;;;;5074063;28;20215;-47
2023/06/23 09:33:35;;;;;;;10.52;7.97;;;23.10;99.90;;;;;;5073971;28;20173;-48
2023/06/23 09:36:05;;;;;;;10.80;8.65;;;23.30;99.90;;;;;;5073011;28;20166;-48
2023/06/23 09:38:35;;;;;;;9.57;8.57;;;;;;;;;;5073107;28;20199;-48
2023/06/23 09:41:21;;;;;;;10.43;8.52;;;23.40;99.90;;;;;;5073317;28;20532;-48
2023/06/23 09:43:53;;;;;;;11.63;8.30;;;23.60;99.90;;;;;;5072978;28;20181;-48
2023/06/23 09:46:20;;;;;;;10.25;8.65;;;23.50;99.90;;;;;;5073523;28;20572;-48
2023/06/23 09:48:51;;;;;;;9.27;8.25;;;23.50;99.90;;;;;;5073309;28;20215;-49
2023/06/23 09:51:19;;;;;;;8.15;7.18;;;23.40;99.90;;;;;;5073102;28;20198;-48
2023/06/23 09:53:45;;;;;;;9.10;7.15;;;23.80;99.90;;;;;;5073082;28;20630;-48
2023/06/23 09:56:18;;;;;;;9.18;7.28;;;23.80;99.90;;;;;;5073076;28;20219;-48
2023/06/23 09:58:46;;;;;;;8.35;7.07;;;24.10;99.90;;;;;;5073022;28;20244;-47
2023/06/23 10:01:15;;;;;;;7.70;6.93;;;23.60;99.90;;;;;;5073057;28;20165;-46
2023/06/23 10:03:49;;;;;;;11.25;8.45;;;23.40;99.90;;;;;;5073012;28;20162;-46
2023/06/23 10:06:34;;;;;;;7.55;6.85;;;23.30;99.90;;;;;;5054907;28;20162;-46
2023/06/23 10:09:02;;;;;;;9.30;6.57;;;23.70;99.90;;;;;;5072617;28;20761;-46
2023/06/23 10:11:35;;;;;;;7.90;6.85;;;;;;;;;;5072599;28;20687;-46
2023/06/23 10:14:05;;;;;;;8.20;6.45;;;23.40;99.90;;;;;;5054798;28;20235;-46
2023/06/23 10:16:32;;;;;;;8.98;7.32;;;23.70;99.90;;;;;;5072628;28;20165;-46
2023/06/23 10:18:58;;;;;;;6.57;5.85;;;;;;;;;;5072616;28;20157;-46
2023/06/23 10:21:25;;;;;;;7.82;6.60;;;23.40;99.90;;;;;;5054647;28;20169;-46
2023/06/23 10:23:56;;;;;;;10.13;6.03;;;23.70;99.90;;;;;;5072466;28;20170;-46
2023/06/23 10:26:23;;;;;;;8.73;5.43;;;23.80;99.90;;;;;;5072654;28;20169;-46
2023/06/23 10:28:51;;;;;;;11.13;5.78;;;24.00;99.90;;;;;;5072528;28;20212;-48
2023/06/23 10:31:18;;;;;;;8.40;5.00;;;24.10;99.90;;;;;;5072399;28;20201;-49
2023/06/23 10:33:45;;;;;;;10.90;6.38;;;24.10;99.90;;;;;;5072655;28;20173;-51
2023/06/23 10:36:14;;;;;;;8.10;5.78;;;23.60;99.90;;;;;;5072285;28;20177;-49
2023/06/23 10:38:45;;;;;;;6.70;6.05;;;23.80;99.90;;;;;;5072411;28;20197;-48
2023/06/23 10:41:12;;;;;;;7.00;5.97;;;24.00;99.90;;;;;;5072426;28;20169;-49
2023/06/23 10:43:40;;;;;;;5.82;4.90;;;24.30;99.90;;;;;;5054607;28;20630;-49
2023/06/23 10:46:07;;;;;;;9.00;5.78;;;24.10;99.90;;;;;;5072715;28;20173;-48
2023/06/23 10:48:33;;;;;;;5.85;5.00;;;24.10;99.90;;;;;;5071950;28;20162;-48
2023/06/23 10:51:00;;;;;;;10.57;5.03;;;24.50;99.90;;;;;;5071868;28;20740;-49
2023/06/23 10:53:30;;;;;;;7.47;5.72;;;24.50;99.90;;;;;;5072186;28;20173;-49
2023/06/23 10:55:58;;;;;;;7.68;5.50;;;24.30;99.90;;;;;;5071912;28;20158;-48
2023/06/23 10:58:25;;;;;;;7.20;5.32;;;24.30;99.90;;;;;;5071815;28;20174;-49
2023/06/23 11:00:53;;;;;;;4.75;4.22;;;24.10;99.90;;;;;;5071864;28;20168;-48
2023/06/23 11:03:30;;;;;;;7.53;4.90;;;24.30;99.90;;;;;;5071765;28;20246;-49
2023/06/23 11:05:58;;;;;;;5.57;4.53;;;24.40;99.90;;;;;;5072018;28;20285;-48
2023/06/23 11:08:29;;;;;;;6.53;4.43;;;24.50;99.90;;;;;;5071546;28;20214;-48
2023/06/23 11:11:10;;;;;;;6.82;4.15;;;24.70;99.90;;;;;;5071881;28;20212;-49
2023/06/23 11:13:49;;;;;;;4.55;4.05;;;24.70;99.90;;;;;;5072088;28;20153;-46
2023/06/23 11:16:32;;;;;;;6.40;4.43;;;24.60;99.90;;;;;;5071915;28;20165;-46
2023/06/23 11:18:58;;;;;;;4.95;4.15;;;24.70;99.90;;;;;;5071164;28;20197;-47
2023/06/23 11:21:27;;;;;;;6.78;3.83;;;24.80;99.90;;;;;;5071147;28;20227;-47
2023/06/23 11:24:12;;;;;;;6.97;4.80;;;24.90;99.90;;;;;;5071553;28;20169;-47
2023/06/23 11:26:48;;;;;;;5.20;4.28;;;24.90;99.90;;;;;;5071614;28;20646;-47
2023/06/23 11:29:17;;;;;;;6.00;4.30;;;25.00;99.90;;;;;;5071799;28;20169;-49
2023/06/23 11:32:04;;;;;;;6.18;4.35;;;24.80;99.90;;;;;;5071446;28;20205;-49
2023/06/23 11:34:48;;;;;;;6.68;3.97;;;25.10;99.90;;;;;;5071290;28;20261;-49
2023/06/23 11:37:14;;;;;;;4.90;3.80;;;25.40;99.90;;;;;;5071431;28;20690;-49
2023/06/23 11:39:40;;;;;;;4.55;3.83;;;25.30;99.90;;;;;;5071636;28;20220;-49
2023/06/23 11:42:06;;;;;;;4.03;3.42;;;25.40;99.90;;;;;;5071802;28;20162;-49
2023/06/23 11:44:32;;;;;;;2.75;2.55;;;25.70;99.90;;;;;;5071682;28;20181;-50
2023/06/23 11:46:57;;;;;;;3.08;2.80;;;25.70;99.90;;;;;;5071411;28;20161;-49
2023/06/23 11:49:23;;;;;;;4.43;3.60;;;25.60;99.90;;;;;;5071332;28;20532;-50
2023/06/23 11:51:49;;;;;;;3.35;3.00;;;25.30;99.90;;;;;;5071315;28;20671;-50
2023/06/23 11:54:15;;;;;;;4.07;3.67;;;25.70;99.90;;;;;;5071252;28;20170;-50
2023/06/23 11:56:41;;;;;;;4.80;4.32;;;25.70;99.90;;;;;;5071261;28;20165;-50
2023/06/23 11:59:09;;;;;;;4.75;3.75;;;;;;;;;;5071793;28;20168;-50
2023/06/23 12:01:35;;;;;;;4.25;3.50;;;;;;;;;;5057231;28;20174;-49
2023/06/23 12:04:00;;;;;;;6.32;3.88;;;25.80;99.90;;;;;;5075097;28;20172;-46
2023/06/23 12:06:27;;;;;;;5.65;3.72;;;26.10;99.90;;;;;;5075095;28;20176;-46
2023/06/23 12:08:53;;;;;;;5.55;3.58;;;;;;;;;;5075065;28;20217;-47
2023/06/23 12:11:22;;;;;;;4.63;3.60;;;25.30;99.90;;;;;;5075303;28;20543;-46
2023/06/23 12:13:52;;;;;;;3.90;3.40;;;25.10;99.90;;;;;;5074991;28;20166;-46
2023/06/23 12:16:18;;;;;;;5.15;3.47;;;25.30;99.90;;;;;;5075070;28;20207;-46
2023/06/23 12:18:51;;;;;;;3.85;3.42;;;;;;;;;;5074972;28;20186;-46
2023/06/23 12:21:21;;;;;;;4.72;3.72;;;25.50;99.90;;;;;;5074780;28;20200;-46
2023/06/23 12:23:47;;;;;;;6.78;3.58;;;25.40;99.90;;;;;;5056798;28;20645;-46
2023/06/23 12:26:14;;;;;;;3.67;3.38;;;25.70;99.90;;;;;;5074999;28;20598;-46
2023/06/23 12:28:39;;;;;;;3.60;3.20;;;25.60;99.90;;;;;;5075003;28;20199;-46
2023/06/23 12:31:06;;;;;;;4.28;3.75;;;25.90;99.90;;;;;;5075030;28;20203;-46
2023/06/23 12:33:33;;;;;;;3.72;3.38;;;25.90;99.90;;;;;;5074526;28;20649;-46
2023/06/23 12:36:03;;;;;;;4.40;3.60;;;26.00;99.90;;;;;;5074531;28;20180;-46
2023/06/23 12:38:34;;;;;;;4.47;3.50;;;26.00;99.90;;;;;;5074728;28;20256;-46
2023/06/23 12:41:26;;;;;;;3.40;3.13;;;26.20;99.90;;;;;;5074761;28;20180;-46
2023/06/23 12:44:03;;;;;;;7.65;3.47;;;26.40;99.90;;;;;;5074673;28;20235;-46
2023/06/23 12:46:30;;;;;;;4.80;3.00;;;26.40;99.90;;;;;;5074590;28;20267;-46
2023/06/23 12:48:57;;;;;;;5.03;3.28;;;26.10;99.90;;;;;;5074603;28;20311;-46
2023/06/23 12:51:33;;;;;;;5.50;3.20;;;26.50;99.90;;;;;;5074534;28;20205;-46
2023/06/23 12:54:00;;;;;;;4.10;3.58;;;26.90;99.90;;;;;;5074250;28;20393;-46